Time;durP1;ratioP1;P1;durP2;ratioP2;P2;SDS_P1;SDS_P2;PMS_P1;PMS_P2;Temp;Humidity;BMP_temperature;BMP_pressure;BME280_temperature;BME280_humidity;BME280_pressure;Samples;Min_cycle;Max_cycle;Signal;HPM_P1;HPM_P2
2022/07/17 00:00:58;;;;;;;8.57;3.25;;;10.40;99.90;;;;;;5049782;28;20156;-73
2022/07/17 00:03:24;;;;;;;7.38;3.17;;;10.10;99.90;;;;;;5049775;28;20491;-73
2022/07/17 00:05:49;;;;;;;7.55;2.92;;;10.10;99.90;;;;;;5047881;28;20049;-74
2022/07/17 00:08:15;;;;;;;7.50;3.00;;;10.20;99.90;;;;;;5048515;28;20072;-74
2022/07/17 00:10:42;;;;;;;8.73;3.35;;;10.20;99.90;;;;;;5050866;28;20057;-73
2022/07/17 00:13:09;;;;;;;9.52;3.72;;;10.10;99.90;;;;;;5049616;28;20124;-73
2022/07/17 00:15:35;;;;;;;10.50;3.38;;;10.10;99.90;;;;;;5049821;28;20037;-74
2022/07/17 00:18:01;;;;;;;11.35;3.78;;;10.00;99.90;;;;;;5063257;28;20044;-74
2022/07/17 00:20:28;;;;;;;10.10;4.30;;;10.00;99.90;;;;;;5068504;28;20079;-73
2022/07/17 00:22:57;;;;;;;9.70;3.45;;;10.00;99.90;;;;;;5067773;28;20049;-73
2022/07/17 00:25:23;;;;;;;9.20;3.92;;;10.00;99.90;;;;;;5069734;28;20056;-74
2022/07/17 00:27:49;;;;;;;8.00;3.38;;;9.90;99.90;;;;;;5069289;28;20041;-74
2022/07/17 00:30:17;;;;;;;11.30;3.90;;;9.90;99.90;;;;;;5069628;28;20052;-74
2022/07/17 00:32:44;;;;;;;14.07;4.38;;;9.90;99.90;;;;;;5067828;28;20080;-74
2022/07/17 00:35:10;;;;;;;9.10;3.80;;;9.80;99.90;;;;;;5069301;28;20049;-74
2022/07/17 00:37:41;;;;;;;8.63;3.95;;;9.80;99.90;;;;;;5069502;28;20573;-74
2022/07/17 00:40:09;;;;;;;6.00;3.45;;;10.00;99.90;;;;;;5069521;28;20128;-73
2022/07/17 00:42:34;;;;;;;5.43;2.92;;;9.70;99.90;;;;;;5065707;28;20090;-74
2022/07/17 00:45:00;;;;;;;7.03;2.42;;;9.70;99.90;;;;;;5069300;28;20037;-74
2022/07/17 00:47:25;;;;;;;3.80;2.30;;;9.80;99.90;;;;;;5068030;28;20102;-74
2022/07/17 00:49:51;;;;;;;7.35;3.15;;;9.60;99.90;;;;;;5069245;28;20098;-74
2022/07/17 00:52:18;;;;;;;6.57;2.88;;;9.70;99.90;;;;;;5069175;28;20762;-74
2022/07/17 00:54:45;;;;;;;9.95;3.53;;;9.60;99.90;;;;;;5067734;28;20048;-74
2022/07/17 00:57:15;;;;;;;6.70;3.30;;;9.70;99.90;;;;;;5067989;28;20083;-74
2022/07/17 00:59:41;;;;;;;8.60;3.97;;;9.60;99.90;;;;;;5069021;28;20408;-74
2022/07/17 01:02:09;;;;;;;9.05;3.30;;;9.50;99.90;;;;;;5069261;28;20052;-74
2022/07/17 01:04:37;;;;;;;7.97;3.28;;;9.50;99.90;;;;;;5067298;28;20032;-74
2022/07/17 01:07:04;;;;;;;10.00;3.25;;;9.40;99.90;;;;;;5067713;28;20055;-74
2022/07/17 01:09:31;;;;;;;6.47;3.75;;;9.60;99.90;;;;;;5067937;28;20480;-74
2022/07/17 01:11:57;;;;;;;8.00;3.22;;;9.50;99.90;;;;;;5068752;28;20052;-73
2022/07/17 01:14:25;;;;;;;11.65;3.38;;;9.40;99.90;;;;;;5066786;28;20508;-74
2022/07/17 01:16:54;;;;;;;5.85;2.92;;;9.40;99.90;;;;;;5068748;28;20059;-74
2022/07/17 01:19:20;;;;;;;6.20;2.97;;;9.40;99.90;;;;;;5072320;28;20048;-73
2022/07/17 01:21:49;;;;;;;6.93;2.70;;;9.40;99.90;;;;;;5071033;28;20127;-73
2022/07/17 01:24:15;;;;;;;6.38;2.60;;;9.50;99.90;;;;;;5072249;28;20055;-73
2022/07/17 01:26:46;;;;;;;4.82;2.50;;;9.30;99.90;;;;;;5061412;28;20088;-73
2022/07/17 01:29:13;;;;;;;4.63;2.20;;;9.40;99.90;;;;;;5050869;28;20059;-73
2022/07/17 01:31:40;;;;;;;3.95;2.22;;;9.30;99.90;;;;;;5052204;28;20060;-73
2022/07/17 01:34:07;;;;;;;3.63;2.15;;;9.30;99.90;;;;;;5052338;28;20045;-74
2022/07/17 01:36:33;;;;;;;7.50;2.80;;;9.20;99.90;;;;;;5053100;28;20119;-73
2022/07/17 01:38:59;;;;;;;5.13;2.60;;;9.30;99.90;;;;;;5052027;28;20056;-73
2022/07/17 01:41:25;;;;;;;6.05;3.10;;;9.80;99.90;;;;;;5050759;28;20041;-74
2022/07/17 01:43:51;;;;;;;5.55;2.50;;;9.20;99.90;;;;;;5052086;28;20407;-73
2022/07/17 01:46:16;;;;;;;3.80;2.45;;;9.40;99.90;;;;;;5052802;28;20052;-73
2022/07/17 01:48:42;;;;;;;7.90;3.03;;;9.20;99.90;;;;;;5052023;28;20488;-73
2022/07/17 01:51:08;;;;;;;5.70;2.60;;;9.20;99.90;;;;;;5051627;28;20094;-73
2022/07/17 01:53:33;;;;;;;6.88;2.13;;;9.20;99.90;;;;;;5051983;28;20119;-72
2022/07/17 01:55:59;;;;;;;3.85;2.20;;;9.20;99.90;;;;;;5051910;28;20570;-73
2022/07/17 01:58:25;;;;;;;5.30;2.10;;;9.20;99.90;;;;;;5051512;28;20057;-73
2022/07/17 02:00:52;;;;;;;3.00;1.98;;;9.20;99.90;;;;;;5051413;28;20059;-72
2022/07/17 02:03:18;;;;;;;4.88;2.30;;;9.20;99.90;;;;;;5051567;28;20041;-72
2022/07/17 02:05:43;;;;;;;7.00;2.42;;;9.30;99.90;;;;;;5031934;28;20055;-73
2022/07/17 02:08:09;;;;;;;5.35;2.63;;;9.10;99.90;;;;;;5039029;28;20538;-73
2022/07/17 02:10:35;;;;;;;6.40;2.92;;;9.10;99.90;;;;;;5050083;28;20056;-73
2022/07/17 02:13:01;;;;;;;6.97;2.33;;;9.10;99.90;;;;;;5051560;28;20053;-73
2022/07/17 02:15:26;;;;;;;5.63;2.53;;;9.00;99.90;;;;;;5053356;28;20045;-72
2022/07/17 02:17:52;;;;;;;5.70;2.17;;;9.20;99.90;;;;;;5069223;28;20487;-72
2022/07/17 02:20:18;;;;;;;4.05;2.53;;;9.00;99.90;;;;;;5066935;28;20049;-74
2022/07/17 02:22:44;;;;;;;6.53;2.65;;;8.90;99.90;;;;;;5067022;28;20034;-73
2022/07/17 02:25:12;;;;;;;3.85;1.75;;;8.90;99.90;;;;;;5069082;28;20488;-74
2022/07/17 02:27:39;;;;;;;4.97;2.33;;;8.90;99.90;;;;;;5071203;28;20102;-74
2022/07/17 02:30:07;;;;;;;4.10;2.15;;;8.90;99.90;;;;;;5058511;28;20476;-74
2022/07/17 02:32:33;;;;;;;8.90;2.58;;;8.90;99.90;;;;;;5050910;28;20049;-73
2022/07/17 02:34:59;;;;;;;11.25;2.53;;;8.90;99.90;;;;;;5032984;28;20114;-73
2022/07/17 02:37:24;;;;;;;4.22;1.95;;;8.80;99.90;;;;;;5051181;28;20044;-73
2022/07/17 02:39:53;;;;;;;7.57;2.38;;;8.90;99.90;;;;;;5050915;28;20068;-74
2022/07/17 02:42:24;;;;;;;6.10;3.08;;;8.90;99.90;;;;;;5060213;28;20390;-73
2022/07/17 02:44:51;;;;;;;6.20;3.15;;;8.80;99.90;;;;;;5071082;28;20040;-73
2022/07/17 02:47:31;;;;;;;5.63;3.00;;;8.90;99.90;;;;;;5069346;28;20160;-73
2022/07/17 02:49:57;;;;;;;5.53;3.00;;;9.00;99.90;;;;;;5069331;28;20552;-73
2022/07/17 02:52:23;;;;;;;7.63;2.75;;;8.90;99.90;;;;;;5071144;28;20419;-73
2022/07/17 02:54:49;;;;;;;4.45;2.25;;;8.90;99.90;;;;;;5066575;28;20072;-74
2022/07/17 02:57:16;;;;;;;7.70;2.90;;;8.90;99.90;;;;;;5051094;28;20041;-73
2022/07/17 02:59:42;;;;;;;8.88;2.83;;;8.80;99.90;;;;;;5033018;28;20528;-72
2022/07/17 03:02:07;;;;;;;4.95;2.22;;;8.80;99.90;;;;;;5054189;28;20095;-74
2022/07/17 03:04:33;;;;;;;6.25;2.70;;;8.80;99.90;;;;;;5051036;28;20099;-73
2022/07/17 03:06:59;;;;;;;7.63;2.53;;;8.80;99.90;;;;;;5049623;28;20090;-73
2022/07/17 03:09:24;;;;;;;6.43;2.25;;;8.70;99.90;;;;;;5054082;28;20045;-73
2022/07/17 03:11:50;;;;;;;5.63;2.40;;;8.70;99.90;;;;;;5067247;28;20056;-73
2022/07/17 03:14:16;;;;;;;6.05;2.28;;;9.00;99.90;;;;;;5068561;28;20132;-72
2022/07/17 03:16:41;;;;;;;6.95;3.00;;;8.70;99.90;;;;;;5050419;28;20048;-73
2022/07/17 03:19:07;;;;;;;4.15;2.10;;;8.70;99.90;;;;;;5048883;28;20485;-73
2022/07/17 03:21:33;;;;;;;3.53;2.25;;;8.70;99.90;;;;;;5065287;28;20777;-73
2022/07/17 03:23:58;;;;;;;5.53;1.95;;;8.70;99.90;;;;;;5049593;28;20506;-73
2022/07/17 03:26:24;;;;;;;6.05;2.05;;;8.60;99.90;;;;;;5030256;28;20037;-73
2022/07/17 03:28:50;;;;;;;9.57;2.00;;;8.60;99.90;;;;;;5041025;28;20163;-73
2022/07/17 03:31:15;;;;;;;4.45;2.20;;;8.60;99.90;;;;;;5050085;28;20083;-74
2022/07/17 03:33:41;;;;;;;4.55;2.10;;;8.60;99.90;;;;;;5050724;28;20092;-73
2022/07/17 03:36:07;;;;;;;4.55;2.42;;;8.50;99.90;;;;;;5048765;28;20056;-74
2022/07/17 03:38:33;;;;;;;4.78;2.42;;;8.50;99.90;;;;;;5054970;28;20033;-73
2022/07/17 03:40:59;;;;;;;2.95;1.60;;;8.50;99.90;;;;;;5049635;28;20048;-73
2022/07/17 03:43:25;;;;;;;4.22;2.13;;;8.60;99.90;;;;;;5051051;28;20043;-73
2022/07/17 03:45:51;;;;;;;3.92;1.92;;;8.60;99.90;;;;;;5050096;28;20389;-73
2022/07/17 03:48:17;;;;;;;3.83;2.30;;;8.60;99.90;;;;;;5051063;28;20032;-73
2022/07/17 03:50:43;;;;;;;7.00;2.55;;;8.60;99.90;;;;;;5049043;28;20116;-73
2022/07/17 03:53:08;;;;;;;5.10;2.83;;;8.60;99.90;;;;;;5049518;28;20214;-73
2022/07/17 03:55:34;;;;;;;6.60;2.92;;;8.70;99.90;;;;;;5048116;28;20106;-72
2022/07/17 03:58:00;;;;;;;6.50;3.17;;;8.70;99.90;;;;;;5049470;28;20037;-73
2022/07/17 04:00:25;;;;;;;5.90;3.00;;;8.70;99.90;;;;;;5049626;28;20036;-73
2022/07/17 04:02:51;;;;;;;6.13;2.58;;;8.70;99.90;;;;;;5049688;28;20284;-73
2022/07/17 04:05:17;;;;;;;4.35;2.78;;;9.00;99.90;;;;;;5049273;28;20047;-73
2022/07/17 04:07:43;;;;;;;5.18;2.53;;;8.80;99.90;;;;;;5049718;28;20744;-73
2022/07/17 04:10:11;;;;;;;4.07;2.58;;;8.90;99.90;;;;;;5048217;28;20726;-73
2022/07/17 04:12:38;;;;;;;6.75;3.00;;;8.90;99.90;;;;;;5048977;28;20071;-73
2022/07/17 04:15:06;;;;;;;7.60;4.10;;;8.90;99.90;;;;;;5049206;28;20510;-73
2022/07/17 04:17:31;;;;;;;7.10;2.75;;;9.00;99.90;;;;;;5048227;28;20049;-73
2022/07/17 04:19:57;;;;;;;4.68;2.83;;;9.00;99.90;;;;;;5047715;28;20373;-73
2022/07/17 04:22:23;;;;;;;6.47;2.97;;;9.10;99.90;;;;;;5048154;28;20041;-73
2022/07/17 04:24:49;;;;;;;5.65;2.80;;;9.10;99.90;;;;;;5049745;28;20041;-73
2022/07/17 04:27:15;;;;;;;6.18;3.03;;;9.20;99.90;;;;;;5049755;28;20041;-73
2022/07/17 04:29:41;;;;;;;8.35;3.10;;;9.20;99.90;;;;;;5048159;28;20098;-73
2022/07/17 04:32:07;;;;;;;6.45;2.90;;;9.40;99.90;;;;;;5049328;28;20047;-74
2022/07/17 04:34:34;;;;;;;10.10;3.22;;;9.40;99.90;;;;;;5049116;28;20093;-74
2022/07/17 04:37:00;;;;;;;6.57;3.33;;;9.40;99.90;;;;;;5049248;28;20140;-73
2022/07/17 04:39:26;;;;;;;7.03;3.10;;;9.50;99.90;;;;;;5052452;28;20048;-74
2022/07/17 04:41:51;;;;;;;10.27;3.25;;;9.60;99.90;;;;;;5049380;28;20053;-74
2022/07/17 04:44:17;;;;;;;9.43;4.25;;;9.60;99.90;;;;;;5049606;28;20091;-73
2022/07/17 04:46:43;;;;;;;9.18;3.42;;;9.70;99.90;;;;;;5049335;28;20458;-73
2022/07/17 04:49:09;;;;;;;8.68;4.10;;;9.80;99.90;;;;;;5047644;28;20057;-73
2022/07/17 04:51:34;;;;;;;9.98;3.70;;;9.90;99.90;;;;;;5051031;28;20033;-74
2022/07/17 04:54:00;;;;;;;9.93;3.55;;;10.00;99.90;;;;;;5053187;28;20044;-73
2022/07/17 04:56:26;;;;;;;12.25;3.85;;;10.00;99.90;;;;;;5051545;28;20037;-74
2022/07/17 04:58:52;;;;;;;7.63;3.85;;;10.10;99.90;;;;;;5053039;28;20049;-74
2022/07/17 05:01:18;;;;;;;9.98;3.78;;;10.20;99.90;;;;;;5051862;28;20124;-74
2022/07/17 05:03:44;;;;;;;8.00;4.10;;;10.30;99.90;;;;;;5051499;28;20105;-74
2022/07/17 05:06:09;;;;;;;7.63;3.80;;;10.30;99.90;;;;;;5052435;28;20173;-74
2022/07/17 05:08:35;;;;;;;6.80;4.13;;;10.40;99.90;;;;;;5051049;28;20124;-73
2022/07/17 05:11:01;;;;;;;6.88;3.38;;;10.40;99.90;;;;;;5052415;28;20045;-75
2022/07/17 05:13:27;;;;;;;5.43;3.20;;;10.50;99.90;;;;;;5051548;28;20056;-73
2022/07/17 05:15:52;;;;;;;10.50;3.60;;;10.60;99.90;;;;;;5051363;28;20535;-73
2022/07/17 05:18:18;;;;;;;6.93;3.28;;;10.70;99.90;;;;;;5052526;28;20051;-73
2022/07/17 05:20:43;;;;;;;8.05;4.22;;;10.70;99.90;;;;;;5050919;28;20579;-74
2022/07/17 05:23:09;;;;;;;14.80;4.05;;;10.80;99.90;;;;;;5050732;28;20052;-73
2022/07/17 05:25:35;;;;;;;6.88;3.75;;;10.90;99.90;;;;;;5052517;28;20055;-74
2022/07/17 05:28:01;;;;;;;9.77;3.70;;;10.90;99.90;;;;;;5052406;28;20484;-73
2022/07/17 05:30:28;;;;;;;7.75;4.00;;;11.00;99.90;;;;;;5058573;28;20049;-73
2022/07/17 05:32:53;;;;;;;12.38;4.45;;;11.30;99.90;;;;;;5052117;28;20128;-74
2022/07/17 05:35:19;;;;;;;6.38;3.03;;;11.20;99.90;;;;;;5050880;28;20143;-71
2022/07/17 05:37:45;;;;;;;7.18;3.65;;;11.30;99.90;;;;;;5051735;28;20186;-74
2022/07/17 05:40:11;;;;;;;7.82;3.55;;;11.40;99.90;;;;;;5050811;28;20084;-73
2022/07/17 05:42:36;;;;;;;7.07;3.85;;;11.40;99.90;;;;;;5051933;28;20070;-74
2022/07/17 05:45:03;;;;;;;8.73;3.92;;;11.50;99.90;;;;;;5051947;28;20053;-74
2022/07/17 05:47:29;;;;;;;9.70;3.95;;;11.60;99.90;;;;;;5051767;28;20036;-74
2022/07/17 05:49:55;;;;;;;7.78;3.67;;;11.70;99.90;;;;;;5051564;28;20521;-74
2022/07/17 05:52:20;;;;;;;9.82;3.88;;;11.80;99.90;;;;;;5051740;28;20041;-74
2022/07/17 05:54:46;;;;;;;13.68;3.78;;;11.90;99.90;;;;;;5051658;28;20049;-74
2022/07/17 05:57:12;;;;;;;8.45;4.38;;;12.10;99.90;;;;;;5051696;28;20041;-73
2022/07/17 05:59:37;;;;;;;13.07;4.05;;;12.20;99.90;;;;;;5051810;28;20036;-73
2022/07/17 06:02:03;;;;;;;6.93;3.55;;;12.30;99.90;;;;;;5051082;28;20509;-74
2022/07/17 06:04:29;;;;;;;7.80;3.60;;;12.60;99.90;;;;;;5051356;28;20045;-73
2022/07/17 06:06:54;;;;;;;7.70;3.22;;;12.80;99.90;;;;;;5051468;28;20053;-74
2022/07/17 06:09:20;;;;;;;11.68;3.80;;;12.80;99.90;;;;;;5049808;28;20044;-74
2022/07/17 06:11:46;;;;;;;7.63;2.92;;;12.90;99.90;;;;;;5057770;28;20389;-74
2022/07/17 06:14:12;;;;;;;11.38;3.08;;;13.10;99.90;;;;;;5051652;28;20056;-74
2022/07/17 06:16:37;;;;;;;9.13;2.90;;;13.20;99.90;;;;;;5051699;28;20545;-74
2022/07/17 06:19:03;;;;;;;9.55;2.67;;;13.40;99.90;;;;;;5050369;28;20061;-74
2022/07/17 06:21:28;;;;;;;7.38;2.45;;;13.60;99.90;;;;;;5051565;28;20542;-74
2022/07/17 06:23:54;;;;;;;9.50;2.38;;;13.70;99.90;;;;;;5049723;28;20088;-74
2022/07/17 06:26:20;;;;;;;5.30;2.08;;;14.00;99.90;;;;;;5051160;28;20128;-74
2022/07/17 06:28:45;;;;;;;5.80;2.17;;;14.10;99.90;;;;;;5051575;28;20124;-74
2022/07/17 06:31:11;;;;;;;5.75;2.30;;;14.20;99.90;;;;;;5051009;28;20578;-74
2022/07/17 06:33:38;;;;;;;5.60;2.10;;;14.40;99.90;;;;;;5051204;28;20496;-75
2022/07/17 06:36:04;;;;;;;13.00;2.28;;;14.60;99.90;;;;;;5051290;28;20037;-75
2022/07/17 06:38:30;;;;;;;4.35;1.40;;;14.70;99.90;;;;;;5050977;28;20045;-74
2022/07/17 06:40:55;;;;;;;8.73;1.40;;;14.90;99.90;;;;;;5050853;28;20493;-74
2022/07/17 06:43:22;;;;;;;9.10;1.48;;;15.20;99.90;;;;;;5049532;28;20091;-75
2022/07/17 06:45:48;;;;;;;3.15;1.23;;;15.30;99.90;;;;;;5050814;28;20533;-74
2022/07/17 06:48:14;;;;;;;8.43;1.48;;;15.30;99.90;;;;;;5050807;28;20040;-74
2022/07/17 06:50:40;;;;;;;8.40;1.75;;;15.50;99.90;;;;;;5051146;28;20049;-74
2022/07/17 06:53:06;;;;;;;5.63;1.13;;;15.60;99.90;;;;;;5050520;28;20088;-75
2022/07/17 06:55:32;;;;;;;9.40;1.77;;;15.70;99.90;;;;;;5050238;28;20083;-75
2022/07/17 06:57:58;;;;;;;6.53;1.33;;;15.90;99.90;;;;;;5050701;28;20076;-75
2022/07/17 07:00:24;;;;;;;10.82;1.10;;;15.80;99.90;;;;;;5050225;28;20079;-74
2022/07/17 07:02:49;;;;;;;5.68;1.45;;;15.90;99.90;;;;;;5049681;28;20052;-74
2022/07/17 07:05:15;;;;;;;6.57;1.15;;;16.10;99.90;;;;;;5050324;28;20041;-75
2022/07/17 07:07:41;;;;;;;14.55;1.90;;;16.00;99.90;;;;;;5032445;28;20463;-74
2022/07/17 07:10:07;;;;;;;7.50;2.08;;;16.00;99.90;;;;;;5050194;28;20051;-74
2022/07/17 07:12:33;;;;;;;8.25;1.92;;;16.00;99.90;;;;;;5049764;28;20063;-74
2022/07/17 07:14:59;;;;;;;7.78;2.08;;;16.00;99.90;;;;;;5049648;28;20041;-75
2022/07/17 07:17:25;;;;;;;9.70;1.70;;;16.10;99.90;;;;;;5050193;28;20392;-75
2022/07/17 07:19:50;;;;;;;6.28;1.52;;;16.20;99.90;;;;;;5049275;28;20052;-75
2022/07/17 07:22:16;;;;;;;10.35;2.60;;;16.20;99.90;;;;;;5050516;28;20047;-75
2022/07/17 07:24:42;;;;;;;3.70;1.00;;;16.70;99.90;;;;;;5050023;28;20482;-76
2022/07/17 07:27:07;;;;;;;9.65;1.50;;;16.60;99.90;;;;;;5049979;28;20077;-75
2022/07/17 07:29:33;;;;;;;5.45;1.17;;;16.30;99.90;;;;;;5050200;28;20041;-75
2022/07/17 07:31:59;;;;;;;6.65;1.33;;;16.40;99.90;;;;;;5050074;28;20055;-74
2022/07/17 07:34:25;;;;;;;5.53;1.10;;;16.40;99.90;;;;;;5049866;28;20037;-75
2022/07/17 07:36:50;;;;;;;6.32;1.10;;;16.50;99.90;;;;;;5050021;28;20091;-76
2022/07/17 07:39:16;;;;;;;4.22;1.10;;;16.60;99.90;;;;;;5048675;28;20076;-75
2022/07/17 07:41:42;;;;;;;6.82;1.13;;;16.70;99.90;;;;;;5048084;28;20045;-76
2022/07/17 07:44:07;;;;;;;4.70;0.98;;;16.70;99.90;;;;;;5049949;28;20040;-75
2022/07/17 07:46:34;;;;;;;6.13;0.80;;;16.80;99.90;;;;;;5056201;28;20046;-75
2022/07/17 07:49:00;;;;;;;4.53;0.75;;;16.80;99.90;;;;;;5049794;28;20039;-75
2022/07/17 07:51:26;;;;;;;5.97;1.17;;;16.90;99.90;;;;;;5049607;28;20098;-75
2022/07/17 07:53:52;;;;;;;6.93;1.15;;;16.90;99.90;;;;;;5053812;28;20048;-76
2022/07/17 07:56:20;;;;;;;6.93;1.40;;;16.90;99.90;;;;;;5053063;28;20041;-75
2022/07/17 07:58:46;;;;;;;7.55;1.20;;;17.00;99.90;;;;;;5031347;28;20052;-74
2022/07/17 08:01:12;;;;;;;4.30;0.70;;;17.00;99.90;;;;;;5049871;28;20045;-76
2022/07/17 08:03:38;;;;;;;5.55;0.77;;;17.10;99.90;;;;;;5057348;28;20049;-75
2022/07/17 08:06:04;;;;;;;8.13;1.42;;;17.20;99.90;;;;;;5049618;28;20070;-76
2022/07/17 08:08:29;;;;;;;6.88;0.90;;;17.30;99.90;;;;;;5049383;28;20048;-75
2022/07/17 08:10:55;;;;;;;5.22;1.08;;;17.50;99.90;;;;;;5047625;28;20461;-76
2022/07/17 08:13:21;;;;;;;5.78;1.42;;;17.70;99.90;;;;;;5049001;28;20404;-76
2022/07/17 08:15:46;;;;;;;7.78;1.10;;;17.90;99.90;;;;;;5049693;28;20098;-79
2022/07/17 08:18:12;;;;;;;11.32;1.38;;;18.20;99.90;;;;;;5048301;28;20041;-75
2022/07/17 08:20:38;;;;;;;6.68;1.38;;;18.40;99.90;;;;;;5048417;28;20190;-76
2022/07/17 08:23:03;;;;;;;6.38;0.90;;;18.70;99.90;;;;;;5056285;28;20442;-76
2022/07/17 08:25:30;;;;;;;6.20;0.80;;;19.00;99.90;;;;;;5049638;28;20037;-77
2022/07/17 08:27:56;;;;;;;4.43;1.10;;;19.10;99.90;;;;;;5053296;28;20041;-76
2022/07/17 08:30:21;;;;;;;6.65;1.13;;;19.30;99.90;;;;;;5053109;28;20642;-75
2022/07/17 08:32:47;;;;;;;11.68;1.23;;;19.60;99.90;;;;;;5060844;28;20051;-77
2022/07/17 08:35:13;;;;;;;6.53;1.20;;;19.80;99.90;;;;;;5052453;28;20138;-76
2022/07/17 08:37:51;;;;;;;4.30;0.93;;;19.90;99.90;;;;;;5053113;28;20052;-75
2022/07/17 08:40:26;;;;;;;6.28;1.00;;;20.10;99.90;;;;;;5053732;28;20224;-75
2022/07/17 08:42:54;;;;;;;8.63;1.25;;;20.30;99.90;;;;;;5053550;28;20049;-75
2022/07/17 08:45:20;;;;;;;3.97;0.80;;;20.60;99.90;;;;;;5053562;28;20036;-75
2022/07/17 08:47:46;;;;;;;8.75;0.88;;;20.80;99.90;;;;;;5053084;28;20040;-75
2022/07/17 08:50:12;;;;;;;5.70;1.00;;;21.10;99.90;;;;;;5061368;28;20454;-77
2022/07/17 08:52:39;;;;;;;4.95;0.80;;;21.10;99.90;;;;;;5052980;28;20049;-74
2022/07/17 08:55:09;;;;;;;7.45;0.88;;;21.30;99.90;;;;;;5062353;28;20502;-75
2022/07/17 08:57:39;;;;;;;5.43;1.05;;;21.30;99.90;;;;;;5057046;28;20515;-75
2022/07/17 09:00:07;;;;;;;9.63;1.10;;;21.70;99.90;;;;;;5052891;28;20048;-76
2022/07/17 09:02:33;;;;;;;5.82;1.17;;;21.90;99.90;;;;;;5053531;28;20059;-74
2022/07/17 09:04:59;;;;;;;5.82;0.90;;;22.00;99.90;;;;;;5055370;28;20049;-75
2022/07/17 09:07:24;;;;;;;5.60;1.23;;;22.20;99.90;;;;;;5058345;28;20033;-76
2022/07/17 09:09:51;;;;;;;3.97;1.10;;;22.30;99.90;;;;;;5052203;28;20033;-75
2022/07/17 09:12:17;;;;;;;11.80;1.10;;;22.40;99.90;;;;;;5063646;28;20049;-76
2022/07/17 09:14:42;;;;;;;4.70;1.20;;;22.50;99.90;;;;;;5053177;28;20048;-75
2022/07/17 09:17:11;;;;;;;5.15;0.80;;;22.70;99.90;;;;;;5044465;28;20091;-76
2022/07/17 09:19:40;;;;;;;4.03;0.80;;;23.00;99.90;;;;;;5052820;28;20041;-76
2022/07/17 09:22:15;;;;;;;7.88;0.82;;;23.10;99.90;;;;;;5052647;28;20130;-76
2022/07/17 09:24:51;;;;;;;5.20;1.35;;;23.10;99.90;;;;;;5055216;28;20124;-76
2022/07/17 09:27:23;;;;;;;5.78;0.88;;;23.30;99.90;;;;;;5045258;28;20222;-77
2022/07/17 09:30:01;;;;;;;8.65;1.75;;;23.40;99.90;;;;;;5052559;28;20495;-76
2022/07/17 09:32:30;;;;;;;6.00;0.95;;;23.50;99.90;;;;;;5046267;28;20106;-77
2022/07/17 09:34:58;;;;;;;6.07;0.93;;;23.80;99.90;;;;;;5052263;28;20491;-76
2022/07/17 09:37:26;;;;;;;6.88;0.88;;;23.80;99.90;;;;;;5048889;28;20091;-75
2022/07/17 09:39:55;;;;;;;3.78;0.85;;;23.80;99.90;;;;;;5051610;28;20049;-75
2022/07/17 09:42:26;;;;;;;8.15;1.08;;;23.90;99.90;;;;;;5050880;28;20040;-77
2022/07/17 09:45:07;;;;;;;7.55;1.20;;;24.00;99.30;;;;;;5052085;28;20495;-75
2022/07/17 09:47:35;;;;;;;2.58;0.80;;;23.80;98.50;;;;;;5044586;28;20575;-77
2022/07/17 09:50:03;;;;;;;7.05;1.45;;;24.00;99.30;;;;;;5052015;28;20045;-77
2022/07/17 09:52:35;;;;;;;5.03;1.02;;;24.00;99.40;;;;;;5048855;28;20106;-76
2022/07/17 09:55:04;;;;;;;4.88;0.70;;;24.00;98.50;;;;;;5050072;28;20391;-76
2022/07/17 09:57:33;;;;;;;6.47;1.83;;;24.30;99.00;;;;;;5054658;28;20499;-77
2022/07/17 10:00:06;;;;;;;2.78;0.98;;;24.30;98.70;;;;;;5050684;28;20053;-75
2022/07/17 10:02:33;;;;;;;2.40;0.90;;;24.20;97.90;;;;;;5051836;28;20080;-75
2022/07/17 10:04:59;;;;;;;4.80;0.95;;;24.60;98.80;;;;;;5050632;28;20048;-74
2022/07/17 10:07:26;;;;;;;3.13;1.05;;;24.70;98.40;;;;;;5052089;28;20068;-75
2022/07/17 10:09:53;;;;;;;4.45;1.00;;;24.90;98.20;;;;;;5051888;28;20485;-77
2022/07/17 10:12:19;;;;;;;5.43;1.30;;;24.90;97.90;;;;;;5050147;28;20053;-78
2022/07/17 10:14:48;;;;;;;4.55;0.80;;;25.10;97.90;;;;;;5051765;28;20480;-76
2022/07/17 10:17:19;;;;;;;5.25;1.17;;;25.10;97.30;;;;;;5051558;28;20041;-78
2022/07/17 10:19:50;;;;;;;2.67;0.77;;;25.10;96.60;;;;;;5051527;28;20484;-76
2022/07/17 10:22:16;;;;;;;3.33;0.90;;;24.90;96.50;;;;;;5051494;28;20531;-77
2022/07/17 10:24:52;;;;;;;4.82;0.95;;;24.90;97.30;;;;;;5051640;28;20064;-77
2022/07/17 10:27:25;;;;;;;5.75;1.08;;;25.00;96.20;;;;;;5051565;28;20053;-76
2022/07/17 10:30:03;;;;;;;5.28;0.70;;;25.00;96.60;;;;;;5051206;28;20546;-77
2022/07/17 10:32:30;;;;;;;8.27;0.90;;;25.00;96.60;;;;;;5050018;28;20565;-77
2022/07/17 10:35:10;;;;;;;3.08;0.80;;;25.20;96.90;;;;;;5051043;28;20095;-76
2022/07/17 10:37:35;;;;;;;6.75;0.80;;;25.20;96.30;;;;;;5051255;28;20450;-76
2022/07/17 10:40:20;;;;;;;5.32;1.23;;;25.10;96.60;;;;;;5051163;28;20041;-78
2022/07/17 10:42:58;;;;;;;3.75;1.15;;;25.30;95.90;;;;;;5051150;28;20037;-77
2022/07/17 10:45:42;;;;;;;3.53;1.00;;;25.10;96.10;;;;;;5051111;28;20087;-77
2022/07/17 10:48:09;;;;;;;2.92;0.80;;;25.30;95.60;;;;;;5041367;28;20747;-76
2022/07/17 10:50:43;;;;;;;3.38;0.90;;;25.40;95.20;;;;;;5050453;28;20078;-77
2022/07/17 10:53:17;;;;;;;4.88;1.00;;;25.40;95.30;;;;;;5051293;28;20796;-76
2022/07/17 10:56:05;;;;;;;5.95;1.00;;;25.40;94.90;;;;;;5036848;28;20073;-74
2022/07/17 10:58:33;;;;;;;5.93;0.90;;;25.30;94.80;;;;;;5051134;28;20056;-81
2022/07/17 11:01:10;;;;;;;3.70;1.15;;;25.40;95.40;;;;;;5050657;28;20053;-77
2022/07/17 11:03:46;;;;;;;5.05;0.80;;;25.60;95.00;;;;;;5050432;28;20080;-77
2022/07/17 11:06:18;;;;;;;5.10;0.80;;;25.60;94.90;;;;;;5050299;28;20550;-82
2022/07/17 11:08:50;;;;;;;6.05;1.00;;;25.70;95.00;;;;;;5050454;28;20048;-78
2022/07/17 11:11:18;;;;;;;4.10;1.00;;;25.70;94.30;;;;;;5056637;28;20052;-76
2022/07/17 11:13:44;;;;;;;10.68;1.63;;;25.70;94.70;;;;;;5051061;28;20492;-78
2022/07/17 11:16:10;;;;;;;2.38;0.73;;;26.00;95.10;;;;;;5050439;28;20036;-79
2022/07/17 11:18:36;;;;;;;4.53;0.88;;;25.90;93.90;;;;;;5050560;28;20052;-75
2022/07/17 11:21:04;;;;;;;2.33;0.82;;;26.00;95.20;;;;;;5042235;28;20350;-76
2022/07/17 11:23:32;;;;;;;5.43;1.10;;;26.40;94.90;;;;;;5049957;28;20041;-76
2022/07/17 11:26:06;;;;;;;3.08;0.90;;;26.40;94.40;;;;;;5057816;28;20415;-77
2022/07/17 11:28:43;;;;;;;7.60;1.00;;;26.50;94.20;;;;;;5049838;28;20037;-75
2022/07/17 11:31:16;;;;;;;6.70;1.35;;;26.60;94.90;;;;;;5050097;28;20488;-78
2022/07/17 11:34:03;;;;;;;4.85;1.02;;;26.50;93.40;;;;;;5049868;28;20503;-76
2022/07/17 11:36:36;;;;;;;3.65;1.08;;;26.70;93.80;;;;;;5043456;28;20041;-75
2022/07/17 11:39:15;;;;;;;5.07;0.90;;;26.60;94.50;;;;;;5049994;28;20041;-77
2022/07/17 11:41:43;;;;;;;3.40;0.80;;;26.80;93.20;;;;;;5054988;28;20047;-77
2022/07/17 11:44:14;;;;;;;4.18;1.00;;;26.90;93.60;;;;;;5049769;28;20057;-76
2022/07/17 11:46:42;;;;;;;4.20;1.30;;;27.10;93.80;;;;;;5049821;28;20097;-76
2022/07/17 11:49:08;;;;;;;4.72;0.95;;;27.00;93.50;;;;;;5049639;28;20052;-78
2022/07/17 11:51:40;;;;;;;3.42;1.00;;;27.00;92.80;;;;;;5049063;28;20102;-78
2022/07/17 11:54:11;;;;;;;6.43;1.05;;;27.10;92.50;;;;;;5057243;28;20052;-76
2022/07/17 11:56:38;;;;;;;3.72;1.10;;;27.00;93.00;;;;;;5050067;28;20116;-77
2022/07/17 11:59:05;;;;;;;4.03;1.20;;;27.00;92.40;;;;;;5049739;28;20076;-76
2022/07/17 12:01:43;;;;;;;4.13;0.98;;;27.10;92.40;;;;;;5048771;28;20033;-76
2022/07/17 12:04:14;;;;;;;4.30;1.05;;;27.00;91.20;;;;;;5049458;28;20049;-76
2022/07/17 12:06:40;;;;;;;5.60;1.15;;;27.10;92.10;;;;;;5049075;28;20044;-77
2022/07/17 12:09:07;;;;;;;3.92;1.25;;;27.40;92.20;;;;;;5055932;28;20045;-78
2022/07/17 12:11:33;;;;;;;3.03;1.20;;;27.50;91.40;;;;;;5053130;28;20061;-77
2022/07/17 12:14:06;;;;;;;6.25;1.52;;;27.20;90.90;;;;;;5039385;28;20044;-77
2022/07/17 12:16:35;;;;;;;4.17;1.97;;;27.40;91.00;;;;;;5041382;28;20091;-77
2022/07/17 12:19:03;;;;;;;5.45;1.60;;;27.10;90.90;;;;;;5029992;28;20045;-76
2022/07/17 12:21:30;;;;;;;4.68;1.10;;;27.40;91.60;;;;;;5029702;28;20472;-77
2022/07/17 12:24:03;;;;;;;4.85;1.90;;;27.60;91.70;;;;;;5029494;28;20037;-77
2022/07/17 12:26:30;;;;;;;4.20;1.77;;;27.50;91.10;;;;;;5029643;28;20046;-75
2022/07/17 12:28:55;;;;;;;2.72;1.52;;;27.70;91.20;;;;;;5028527;28;20056;-75
2022/07/17 12:31:23;;;;;;;5.07;1.95;;;27.70;91.30;;;;;;5029496;28;20440;-75
2022/07/17 12:33:51;;;;;;;3.35;1.52;;;27.90;90.60;;;;;;5029837;28;20049;-74
2022/07/17 12:36:17;;;;;;;4.72;1.75;;;27.80;90.10;;;;;;5029649;28;20042;-75
2022/07/17 12:38:43;;;;;;;3.72;1.75;;;27.80;89.80;;;;;;5029060;28;20053;-75
2022/07/17 12:41:09;;;;;;;3.28;1.63;;;28.00;88.90;;;;;;5029502;28;20053;-75
2022/07/17 12:43:35;;;;;;;8.13;1.85;;;28.00;88.30;;;;;;5029529;28;20033;-74
2022/07/17 12:46:01;;;;;;;3.08;1.65;;;28.10;88.40;;;;;;5029444;28;20432;-75
2022/07/17 12:48:26;;;;;;;5.57;1.90;;;28.20;89.80;;;;;;5029385;28;20042;-76
2022/07/17 12:50:52;;;;;;;4.25;1.65;;;28.30;90.10;;;;;;5029401;28;20504;-76